Time;durP1;ratioP1;P1;durP2;ratioP2;P2;SDS_P1;SDS_P2;PMS_P1;PMS_P2;Temp;Humidity;BMP_temperature;BMP_pressure;BME280_temperature;BME280_humidity;BME280_pressure;Samples;Min_cycle;Max_cycle;Signal;HPM_P1;HPM_P2
2020/12/13 05:02:48;;;;;;;58.90;25.25;;;3.50;99.90;;;;;;4972173;28;20247;-68
2020/12/13 05:05:14;;;;;;;48.80;20.88;;;3.50;99.90;;;;;;4973077;28;20223;-68
2020/12/13 05:07:41;;;;;;;56.22;22.98;;;3.50;99.90;;;;;;4974428;28;20617;-68
2020/12/13 05:10:07;;;;;;;55.25;23.83;;;3.50;99.90;;;;;;4973416;28;20220;-68
2020/12/13 05:12:33;;;;;;;51.72;23.50;;;3.50;99.90;;;;;;4954439;28;20225;-69
2020/12/13 05:15:02;;;;;;;48.90;23.08;;;3.50;99.90;;;;;;4954113;29;20689;-69
2020/12/13 05:17:28;;;;;;;63.17;25.70;;;3.50;99.90;;;;;;4954841;29;20256;-69
2020/12/13 05:19:55;;;;;;;62.33;26.63;;;3.50;99.90;;;;;;4954628;29;20650;-69
2020/12/13 05:22:22;;;;;;;49.85;22.63;;;3.50;99.90;;;;;;4953415;28;20229;-69
2020/12/13 05:24:49;;;;;;;57.78;23.77;;;3.50;99.90;;;;;;4954159;29;20209;-68
2020/12/13 05:27:21;;;;;;;59.83;25.73;;;3.50;99.90;;;;;;4953914;29;20572;-68
2020/12/13 05:29:50;;;;;;;56.83;22.77;;;3.50;99.90;;;;;;4954471;29;21030;-68
2020/12/13 05:32:20;;;;;;;53.38;22.92;;;3.50;99.90;;;;;;4954150;28;20233;-68
2020/12/13 05:34:50;;;;;;;44.90;22.80;;;3.50;99.90;;;;;;4953540;28;20291;-69
2020/12/13 05:37:18;;;;;;;47.38;22.17;;;3.50;99.90;;;;;;4954532;29;20237;-69
2020/12/13 05:39:52;;;;;;;59.95;25.67;;;3.50;99.90;;;;;;4954223;28;20257;-69
2020/12/13 05:42:27;;;;;;;51.78;23.60;;;3.50;99.90;;;;;;4952361;28;20229;-69
2020/12/13 05:50:49;;;;;;;54.33;25.00;;;3.50;99.90;;;;;;4912416;29;20544;-69
2020/12/13 05:53:16;;;;;;;57.30;23.85;;;3.50;99.90;;;;;;4949124;28;20215;-69
2020/12/13 05:55:42;;;;;;;51.10;21.70;;;3.50;99.90;;;;;;4952680;28;20712;-69
2020/12/13 05:58:08;;;;;;;57.50;23.27;;;3.50;99.90;;;;;;4954891;29;20264;-69
2020/12/13 06:00:35;;;;;;;59.42;26.27;;;3.50;99.90;;;;;;4953408;28;20227;-69
2020/12/13 06:03:04;;;;;;;50.63;21.30;;;3.50;99.90;;;;;;4953924;29;20209;-69
2020/12/13 06:05:35;;;;;;;55.28;24.67;;;3.50;99.90;;;;;;4953447;28;20270;-69
2020/12/13 06:08:04;;;;;;;56.65;24.80;;;3.50;99.90;;;;;;4954216;28;20213;-69
2020/12/13 06:10:34;;;;;;;54.83;24.23;;;3.50;99.90;;;;;;4956131;28;20252;-69
2020/12/13 06:13:02;;;;;;;48.15;23.25;;;3.50;99.90;;;;;;4956230;29;20732;-69
2020/12/13 06:15:29;;;;;;;56.13;24.35;;;3.50;99.90;;;;;;4956842;29;20686;-69
2020/12/13 06:17:56;;;;;;;58.72;24.08;;;3.50;99.90;;;;;;4957163;28;20244;-69
2020/12/13 06:20:23;;;;;;;49.25;22.42;;;3.50;99.90;;;;;;4956941;28;20253;-69
2020/12/13 06:22:51;;;;;;;52.97;24.25;;;3.50;99.90;;;;;;4957167;28;20205;-69
2020/12/13 06:25:18;;;;;;;63.13;27.08;;;3.40;99.90;;;;;;4956690;29;20219;-69
2020/12/13 06:27:47;;;;;;;70.47;25.50;;;3.40;99.90;;;;;;4957295;28;20728;-69
2020/12/13 06:30:14;;;;;;;61.33;25.23;;;3.50;99.90;;;;;;4957001;29;20262;-69
2020/12/13 06:32:41;;;;;;;60.33;25.92;;;3.50;99.90;;;;;;4956540;28;20253;-69
2020/12/13 06:35:08;;;;;;;60.97;24.27;;;3.50;99.90;;;;;;4956236;29;20201;-69
2020/12/13 06:37:37;;;;;;;56.70;25.85;;;3.50;99.90;;;;;;4956768;28;20209;-69
2020/12/13 06:40:08;;;;;;;58.35;25.83;;;3.50;99.90;;;;;;4956328;28;20216;-69
2020/12/13 06:42:39;;;;;;;55.67;23.83;;;3.50;99.90;;;;;;4944979;28;20197;-69
2020/12/13 06:45:08;;;;;;;57.78;25.25;;;3.50;99.90;;;;;;4956254;29;20285;-69
2020/12/13 06:47:39;;;;;;;57.38;22.92;;;3.50;99.90;;;;;;4956388;29;20209;-69
2020/12/13 06:50:05;;;;;;;57.85;26.20;;;3.50;99.90;;;;;;4955324;29;20247;-69
2020/12/13 06:52:32;;;;;;;49.97;23.88;;;3.50;99.90;;;;;;4955038;28;20225;-69
2020/12/13 06:55:03;;;;;;;55.67;24.80;;;3.50;99.90;;;;;;4956697;29;20264;-69
2020/12/13 06:57:30;;;;;;;60.42;26.60;;;3.50;99.90;;;;;;4956756;29;20209;-69
2020/12/13 06:59:57;;;;;;;52.55;24.10;;;3.50;99.90;;;;;;4956425;29;20204;-69
2020/12/13 07:02:47;;;;;;;53.72;28.00;;;3.50;99.90;;;;;;4954894;28;20264;-69
2020/12/13 07:05:13;;;;;;;59.63;24.35;;;3.50;99.90;;;;;;4955491;28;20213;-69
2020/12/13 07:07:39;;;;;;;62.97;25.30;;;3.50;99.90;;;;;;4955806;29;20212;-69
2020/12/13 07:10:06;;;;;;;59.13;24.65;;;3.50;99.90;;;;;;4955594;29;20232;-69
2020/12/13 07:12:33;;;;;;;49.17;23.55;;;3.50;99.90;;;;;;4954328;29;20208;-69
2020/12/13 07:14:59;;;;;;;51.42;22.20;;;3.50;99.90;;;;;;4955736;28;20213;-69
2020/12/13 07:17:29;;;;;;;54.28;25.63;;;3.50;99.90;;;;;;4955219;29;20252;-69
2020/12/13 07:19:58;;;;;;;59.95;26.58;;;3.60;99.90;;;;;;4954093;28;20205;-69
2020/12/13 07:22:32;;;;;;;54.53;23.75;;;3.60;99.90;;;;;;4954798;29;20276;-68
2020/12/13 07:24:59;;;;;;;50.88;24.55;;;3.50;99.90;;;;;;4955076;29;20205;-69
2020/12/13 07:27:26;;;;;;;55.90;25.33;;;3.50;99.90;;;;;;4954905;28;20218;-69
2020/12/13 07:29:54;;;;;;;54.25;22.65;;;3.50;99.90;;;;;;4954915;29;20221;-68
2020/12/13 07:32:22;;;;;;;43.88;20.75;;;3.50;99.90;;;;;;4954449;29;20583;-69
2020/12/13 07:34:48;;;;;;;67.55;27.58;;;3.60;99.90;;;;;;4954593;28;20256;-69
2020/12/13 07:37:16;;;;;;;48.08;25.27;;;3.50;99.90;;;;;;4955620;28;20256;-68
2020/12/13 07:39:42;;;;;;;43.80;18.30;;;3.50;99.90;;;;;;4954920;28;20201;-68
2020/12/13 07:42:12;;;;;;;57.33;24.30;;;3.60;99.90;;;;;;4954648;29;20233;-68
2020/12/13 07:44:38;;;;;;;72.07;32.55;;;3.60;99.90;;;;;;4954788;29;20288;-68
2020/12/13 07:47:04;;;;;;;60.05;27.17;;;3.60;99.90;;;;;;4955287;29;20201;-68
2020/12/13 07:49:30;;;;;;;61.97;25.75;;;3.60;99.90;;;;;;4954041;29;20685;-67
2020/12/13 07:51:57;;;;;;;57.97;23.58;;;3.60;99.90;;;;;;4954612;28;20233;-68
2020/12/13 07:54:26;;;;;;;52.80;24.27;;;3.60;99.90;;;;;;4954661;29;20559;-68
2020/12/13 07:56:54;;;;;;;68.47;30.17;;;3.60;99.90;;;;;;4953604;29;20471;-67
2020/12/13 07:59:21;;;;;;;56.45;26.10;;;3.70;99.90;;;;;;4955382;29;21012;-68
2020/12/13 08:01:49;;;;;;;54.95;23.60;;;3.70;99.90;;;;;;4954419;28;20284;-67
2020/12/13 08:04:16;;;;;;;53.55;25.23;;;3.70;99.90;;;;;;4954433;29;20213;-68
2020/12/13 08:06:42;;;;;;;64.50;25.50;;;3.70;99.90;;;;;;4953903;29;20563;-68
2020/12/13 08:09:12;;;;;;;58.10;24.83;;;3.70;99.90;;;;;;4952537;29;20284;-68
2020/12/13 08:11:39;;;;;;;48.67;22.27;;;3.70;99.90;;;;;;4953008;28;20225;-69
2020/12/13 08:14:07;;;;;;;54.05;23.80;;;3.70;99.90;;;;;;4954018;28;20685;-68
2020/12/13 08:16:34;;;;;;;51.50;21.13;;;3.70;99.90;;;;;;4954666;29;20308;-67
2020/12/13 08:19:06;;;;;;;47.83;25.73;;;3.70;99.90;;;;;;4954217;29;20259;-67
2020/12/13 08:21:40;;;;;;;57.17;25.73;;;3.70;99.90;;;;;;4953377;29;20225;-67
2020/12/13 08:24:08;;;;;;;54.70;22.70;;;3.80;99.90;;;;;;4954134;28;20259;-67
2020/12/13 08:26:35;;;;;;;57.88;25.55;;;3.70;99.90;;;;;;4953541;28;20202;-68
2020/12/13 08:29:03;;;;;;;52.25;23.45;;;3.80;99.90;;;;;;4954112;29;20236;-68
2020/12/13 08:31:31;;;;;;;54.58;23.85;;;3.70;99.90;;;;;;4953739;28;20296;-67
2020/12/13 08:34:02;;;;;;;49.45;22.65;;;3.80;99.90;;;;;;4953569;28;20213;-67
2020/12/13 08:36:28;;;;;;;48.85;23.13;;;3.80;99.90;;;;;;4953890;29;20213;-67
2020/12/13 08:39:03;;;;;;;54.08;25.67;;;3.80;99.90;;;;;;4953501;29;20210;-67
2020/12/13 08:41:29;;;;;;;55.83;21.83;;;3.80;99.90;;;;;;4953703;29;20307;-67
2020/12/13 08:43:55;;;;;;;54.80;26.10;;;3.80;99.90;;;;;;4953406;29;20634;-68
2020/12/13 08:46:31;;;;;;;58.58;23.40;;;3.80;99.90;;;;;;4953579;28;20672;-68
2020/12/13 08:48:57;;;;;;;62.80;27.13;;;3.90;99.90;;;;;;4944675;29;20201;-69
2020/12/13 08:51:25;;;;;;;57.05;24.92;;;3.90;99.90;;;;;;4953305;28;20335;-68
2020/12/13 08:53:56;;;;;;;50.33;26.50;;;3.90;99.90;;;;;;4953931;28;20280;-67
2020/12/13 08:56:34;;;;;;;52.08;26.27;;;3.90;99.90;;;;;;4953465;28;20293;-67
2020/12/13 08:59:01;;;;;;;57.97;26.80;;;4.00;99.90;;;;;;4954124;29;20232;-67
2020/12/13 09:01:31;;;;;;;53.72;25.48;;;4.00;99.90;;;;;;4953989;28;20237;-67
2020/12/13 09:03:57;;;;;;;57.65;26.58;;;4.00;99.90;;;;;;4953848;29;20292;-68
2020/12/13 09:06:28;;;;;;;54.53;26.75;;;3.90;99.90;;;;;;4953712;29;20209;-67
2020/12/13 09:08:54;;;;;;;58.75;26.70;;;3.90;99.90;;;;;;4953775;28;20257;-67
2020/12/13 09:11:31;;;;;;;63.17;26.65;;;3.90;99.90;;;;;;4953471;29;20604;-67
2020/12/13 09:13:57;;;;;;;52.80;23.73;;;4.00;99.90;;;;;;4953514;29;20224;-67
2020/12/13 09:16:31;;;;;;;39.65;22.30;;;4.00;99.90;;;;;;4953779;29;20205;-66
2020/12/13 09:19:08;;;;;;;49.85;23.90;;;3.90;99.90;;;;;;4953691;28;20217;-67
2020/12/13 09:21:48;;;;;;;64.30;25.00;;;4.00;99.90;;;;;;4954363;28;20296;-67
2020/12/13 09:24:16;;;;;;;53.90;24.63;;;3.90;99.90;;;;;;4953681;29;20209;-67
2020/12/13 09:26:55;;;;;;;54.22;23.75;;;4.00;99.90;;;;;;4953048;29;20736;-66
2020/12/13 09:29:21;;;;;;;58.35;23.13;;;4.00;99.90;;;;;;4952764;28;20274;-66
2020/12/13 09:31:48;;;;;;;58.90;25.70;;;4.00;99.90;;;;;;4953741;28;20276;-68
2020/12/13 09:34:14;;;;;;;57.95;25.15;;;4.00;99.90;;;;;;4953560;28;20213;-67
2020/12/13 09:36:42;;;;;;;60.15;24.50;;;4.10;99.90;;;;;;4954151;29;20232;-67
2020/12/13 09:39:08;;;;;;;64.50;25.95;;;4.10;99.90;;;;;;4953854;29;20511;-67
2020/12/13 09:41:35;;;;;;;62.38;28.83;;;4.00;99.90;;;;;;4952967;28;20264;-69
2020/12/13 09:44:01;;;;;;;61.55;25.63;;;4.00;99.90;;;;;;4954481;28;20608;-70
2020/12/13 09:46:27;;;;;;;57.70;23.42;;;4.10;99.90;;;;;;4957284;29;20213;-68
2020/12/13 09:48:54;;;;;;;56.08;22.52;;;4.10;99.90;;;;;;4956677;29;20208;-68
2020/12/13 09:51:20;;;;;;;60.58;26.98;;;4.10;99.90;;;;;;4956604;28;20566;-69
2020/12/13 09:53:46;;;;;;;65.93;29.20;;;4.10;99.90;;;;;;4957852;28;20205;-69
2020/12/13 09:56:16;;;;;;;62.45;25.65;;;4.10;99.90;;;;;;4957666;29;20423;-68
2020/12/13 09:58:43;;;;;;;61.55;28.08;;;4.10;99.90;;;;;;4957500;29;20637;-69
2020/12/13 10:01:09;;;;;;;69.50;27.45;;;4.10;99.90;;;;;;4957110;28;20552;-68
2020/12/13 10:03:37;;;;;;;61.67;26.50;;;4.10;99.90;;;;;;4953292;28;20216;-68
2020/12/13 10:09:07;;;;;;;65.85;25.25;;;4.10;99.90;;;;;;4918013;28;20246;-69
2020/12/13 10:11:35;;;;;;;56.88;26.23;;;4.10;99.90;;;;;;4949499;28;20235;-69
2020/12/13 10:14:02;;;;;;;74.75;29.15;;;4.10;99.90;;;;;;4957265;28;20206;-69
2020/12/13 10:16:28;;;;;;;61.85;28.98;;;4.20;99.90;;;;;;4957066;28;20213;-69
2020/12/13 10:18:55;;;;;;;68.47;28.13;;;4.20;99.90;;;;;;4956434;28;20282;-69
2020/12/13 10:21:23;;;;;;;60.05;25.30;;;4.20;99.90;;;;;;4955875;28;20303;-68
2020/12/13 10:23:50;;;;;;;62.00;24.58;;;4.20;99.90;;;;;;4955233;28;20213;-69
2020/12/13 10:26:16;;;;;;;64.45;24.27;;;4.20;99.90;;;;;;4955872;28;20202;-68
2020/12/13 10:28:42;;;;;;;52.92;24.95;;;4.20;99.90;;;;;;4955165;28;20202;-68
2020/12/13 10:31:10;;;;;;;59.60;27.08;;;4.20;99.90;;;;;;4955760;28;20288;-68
2020/12/13 10:33:40;;;;;;;63.92;28.23;;;4.20;99.90;;;;;;4955358;28;20598;-69
2020/12/13 10:36:07;;;;;;;61.88;28.13;;;4.30;99.90;;;;;;4954994;28;20210;-68
2020/12/13 10:38:35;;;;;;;60.25;25.98;;;4.30;99.90;;;;;;4955891;28;20198;-69
2020/12/13 10:41:01;;;;;;;57.15;25.70;;;4.30;99.90;;;;;;4955684;28;20340;-68
2020/12/13 10:43:27;;;;;;;62.33;26.55;;;4.30;99.90;;;;;;4955653;28;20205;-69
2020/12/13 10:45:53;;;;;;;57.28;26.95;;;4.30;99.90;;;;;;4955301;28;20685;-68
2020/12/13 10:48:19;;;;;;;62.55;24.58;;;4.40;99.90;;;;;;4954716;28;20221;-69
2020/12/13 10:50:45;;;;;;;55.85;24.95;;;4.40;99.90;;;;;;4954947;28;20225;-69
2020/12/13 10:53:12;;;;;;;68.60;27.42;;;4.40;99.90;;;;;;4953019;28;20209;-69
2020/12/13 10:55:39;;;;;;;56.80;26.83;;;4.40;99.90;;;;;;4952663;28;20956;-69
2020/12/13 10:58:05;;;;;;;57.05;27.35;;;4.40;99.90;;;;;;4947967;28;20586;-69
2020/12/13 11:00:31;;;;;;;59.03;26.02;;;4.40;99.90;;;;;;4955322;28;20221;-69
2020/12/13 11:02:57;;;;;;;54.67;24.60;;;4.40;99.90;;;;;;4953958;29;20205;-68
2020/12/13 11:05:23;;;;;;;51.20;26.70;;;4.40;99.90;;;;;;4941041;29;20351;-70
2020/12/13 11:07:49;;;;;;;48.83;25.05;;;4.50;99.90;;;;;;4955593;28;20213;-69
2020/12/13 11:10:15;;;;;;;56.97;26.27;;;4.50;99.90;;;;;;4953324;28;20225;-68
2020/12/13 11:12:43;;;;;;;63.22;25.60;;;4.50;99.90;;;;;;4954644;29;20622;-68
2020/12/13 11:15:09;;;;;;;52.03;25.90;;;4.50;99.90;;;;;;4951682;28;20206;-68
2020/12/13 11:17:36;;;;;;;51.78;25.40;;;4.60;99.90;;;;;;4955910;29;20205;-69
2020/12/13 11:20:03;;;;;;;56.08;25.02;;;4.60;99.90;;;;;;4955429;28;20582;-69
2020/12/13 11:22:29;;;;;;;62.50;26.45;;;4.60;99.90;;;;;;4955743;28;20232;-68
2020/12/13 11:24:55;;;;;;;46.55;23.95;;;4.60;99.90;;;;;;4955231;29;20244;-68
2020/12/13 11:27:22;;;;;;;49.20;22.85;;;4.60;99.90;;;;;;4954644;29;20209;-68
2020/12/13 11:29:49;;;;;;;52.45;24.90;;;4.60;99.90;;;;;;4955690;28;20225;-68
2020/12/13 11:32:15;;;;;;;57.15;25.75;;;4.60;99.90;;;;;;4955239;28;20233;-69
2020/12/13 11:34:41;;;;;;;54.00;25.33;;;4.60;99.90;;;;;;4955132;29;20291;-69
2020/12/13 11:37:07;;;;;;;42.72;22.52;;;4.60;99.90;;;;;;4954826;29;20549;-69
2020/12/13 11:39:35;;;;;;;40.35;22.50;;;4.60;99.90;;;;;;4954865;29;20201;-69
2020/12/13 11:42:01;;;;;;;44.35;24.33;;;4.70;99.90;;;;;;4954377;28;20299;-69
2020/12/13 11:44:28;;;;;;;48.30;22.38;;;4.70;99.90;;;;;;4955519;28;20593;-69
2020/12/13 11:46:55;;;;;;;49.85;22.95;;;4.70;99.90;;;;;;4954971;28;20213;-69
2020/12/13 11:49:22;;;;;;;47.22;22.70;;;4.70;99.90;;;;;;4955096;28;20652;-69
2020/12/13 11:51:49;;;;;;;46.92;21.38;;;4.70;99.90;;;;;;4955384;29;20229;-69
2020/12/13 11:54:15;;;;;;;45.05;21.63;;;4.70;99.90;;;;;;4954777;28;20213;-69
2020/12/13 11:56:42;;;;;;;50.72;22.58;;;4.70;99.90;;;;;;4954286;28;20228;-69
2020/12/13 11:59:08;;;;;;;50.50;24.05;;;4.70;99.90;;;;;;4956324;29;20215;-69
2020/12/13 12:01:34;;;;;;;38.05;20.42;;;4.70;99.90;;;;;;4955790;28;20268;-69
2020/12/13 12:04:02;;;;;;;45.13;20.60;;;4.70;99.90;;;;;;4956084;29;20221;-69
2020/12/13 12:06:28;;;;;;;36.67;19.95;;;4.70;99.90;;;;;;4954704;28;20285;-69
2020/12/13 12:08:55;;;;;;;41.03;22.60;;;4.70;99.90;;;;;;4956240;29;20205;-69
2020/12/13 12:11:21;;;;;;;51.20;22.83;;;4.60;99.90;;;;;;4955397;29;20712;-69
2020/12/13 12:13:47;;;;;;;52.42;23.33;;;4.60;99.90;;;;;;4955391;28;20256;-69
2020/12/13 12:16:15;;;;;;;44.70;19.52;;;4.60;99.90;;;;;;4955570;28;20265;-69
2020/12/13 12:18:41;;;;;;;45.90;20.70;;;4.60;99.90;;;;;;4955963;28;20641;-69
2020/12/13 12:21:11;;;;;;;46.85;20.90;;;4.60;99.90;;;;;;4954575;29;20273;-69
2020/12/13 12:23:37;;;;;;;44.72;20.88;;;4.60;99.90;;;;;;4955157;29;20252;-69
2020/12/13 12:26:03;;;;;;;40.22;22.90;;;4.60;99.90;;;;;;4953670;29;20201;-69
2020/12/13 12:28:29;;;;;;;40.92;20.45;;;4.60;99.90;;;;;;4955318;28;20272;-69
2020/12/13 12:30:55;;;;;;;44.85;22.65;;;4.60;99.90;;;;;;4954964;28;20229;-69
2020/12/13 12:33:21;;;;;;;35.58;18.05;;;4.60;99.90;;;;;;4955054;28;20205;-69
2020/12/13 12:35:48;;;;;;;42.30;22.42;;;4.70;99.90;;;;;;4953705;29;20256;-69
2020/12/13 12:38:14;;;;;;;45.22;23.63;;;4.70;99.90;;;;;;4955565;29;20209;-69
2020/12/13 12:40:41;;;;;;;42.08;22.88;;;4.70;99.90;;;;;;4953967;28;20237;-69
2020/12/13 12:43:07;;;;;;;43.00;20.80;;;4.70;99.90;;;;;;4954377;29;20215;-69
2020/12/13 12:45:33;;;;;;;44.55;24.20;;;4.70;99.90;;;;;;4954212;29;20327;-69
2020/12/13 12:47:59;;;;;;;47.63;21.80;;;4.70;99.90;;;;;;4954679;29;20673;-69
2020/12/13 12:50:25;;;;;;;45.50;22.88;;;4.70;99.90;;;;;;4953920;28;20229;-67
2020/12/13 12:52:53;;;;;;;39.00;17.75;;;4.70;99.90;;;;;;4954915;29;20205;-68
2020/12/13 12:55:20;;;;;;;42.60;21.60;;;4.80;99.90;;;;;;4953809;29;20212;-67
2020/12/13 12:57:48;;;;;;;37.63;21.65;;;4.70;99.90;;;;;;4954962;29;20217;-68
2020/12/13 13:00:31;;;;;;;45.80;21.50;;;4.70;99.90;;;;;;4954236;28;20628;-68
2020/12/13 13:02:59;;;;;;;44.95;23.05;;;4.70;99.90;;;;;;4954600;28;20252;-68
2020/12/13 13:05:31;;;;;;;47.85;20.73;;;4.70;99.90;;;;;;4953610;29;20205;-68
2020/12/13 13:07:58;;;;;;;44.42;22.13;;;4.70;99.90;;;;;;4954884;28;20673;-68
2020/12/13 13:10:28;;;;;;;45.22;23.38;;;4.70;99.90;;;;;;4953943;28;20326;-68
2020/12/13 13:12:56;;;;;;;63.42;27.95;;;4.80;99.90;;;;;;4954293;28;20678;-69
2020/12/13 13:15:28;;;;;;;51.20;24.55;;;4.80;99.90;;;;;;4953173;29;20219;-70
2020/12/13 13:17:55;;;;;;;55.55;26.95;;;4.80;99.90;;;;;;4954244;28;20222;-69
2020/12/13 13:20:21;;;;;;;42.95;22.63;;;4.80;99.90;;;;;;4956753;28;20732;-69
2020/12/13 13:22:48;;;;;;;50.78;25.58;;;4.90;99.90;;;;;;4957714;29;20272;-69
2020/12/13 13:25:14;;;;;;;51.00;26.73;;;4.90;99.90;;;;;;4957228;28;20237;-67
2020/12/13 13:27:41;;;;;;;54.65;25.90;;;4.90;99.90;;;;;;4958192;29;20209;-68
2020/12/13 13:30:12;;;;;;;38.55;23.05;;;4.90;99.90;;;;;;4957701;28;20280;-68
2020/12/13 13:32:38;;;;;;;52.53;27.88;;;4.90;99.90;;;;;;4957617;29;20213;-68
2020/12/13 13:35:04;;;;;;;50.95;27.48;;;4.90;99.90;;;;;;4957149;29;20240;-68
2020/12/13 13:37:31;;;;;;;65.05;33.55;;;4.90;99.90;;;;;;4958495;28;20225;-69
2020/12/13 13:39:58;;;;;;;48.42;26.48;;;4.90;99.90;;;;;;4959147;28;20220;-69
2020/12/13 13:42:27;;;;;;;66.15;33.15;;;4.90;99.90;;;;;;4957629;29;20288;-69
2020/12/13 13:44:59;;;;;;;47.22;26.50;;;4.90;99.90;;;;;;4957395;29;20209;-69
2020/12/13 13:47:31;;;;;;;106.97;50.17;;;4.90;99.90;;;;;;4957557;28;20213;-69
2020/12/13 13:50:01;;;;;;;51.05;26.02;;;4.90;99.90;;;;;;4956361;29;20212;-69
2020/12/13 13:52:28;;;;;;;57.28;25.58;;;5.00;99.90;;;;;;4957971;28;20232;-69
2020/12/13 13:55:03;;;;;;;44.38;23.45;;;5.00;99.90;;;;;;4957779;29;20213;-69
2020/12/13 13:57:31;;;;;;;59.97;26.90;;;5.10;99.90;;;;;;4956647;28;20220;-69
2020/12/13 14:00:03;;;;;;;45.83;22.83;;;5.10;99.90;;;;;;4956578;29;20209;-69
2020/12/13 14:02:29;;;;;;;56.63;25.95;;;5.00;99.90;;;;;;4957430;28;20256;-69
2020/12/13 14:04:55;;;;;;;44.40;23.42;;;5.00;99.90;;;;;;4956738;29;20209;-68
2020/12/13 14:07:36;;;;;;;51.38;23.25;;;5.00;99.90;;;;;;4956025;28;20228;-68
2020/12/13 14:10:03;;;;;;;47.78;24.77;;;4.90;99.90;;;;;;4957843;28;20260;-69
2020/12/13 14:12:29;;;;;;;50.00;26.58;;;4.90;99.90;;;;;;4955244;28;20229;-69
2020/12/13 14:14:58;;;;;;;55.90;22.75;;;4.90;99.90;;;;;;4957216;28;20201;-68
2020/12/13 14:17:25;;;;;;;60.63;27.90;;;4.90;99.90;;;;;;4957152;28;20237;-68
2020/12/13 14:19:51;;;;;;;47.08;24.20;;;4.80;99.90;;;;;;4951872;29;20213;-69
2020/12/13 14:22:18;;;;;;;56.30;24.45;;;4.80;99.90;;;;;;4946506;28;20304;-69
2020/12/13 14:24:44;;;;;;;54.95;25.17;;;4.80;99.90;;;;;;4950904;29;20300;-70
2020/12/13 14:27:10;;;;;;;55.70;23.15;;;4.80;99.90;;;;;;4950371;28;20205;-70
2020/12/13 14:29:36;;;;;;;53.28;25.13;;;4.80;99.90;;;;;;4954575;28;20213;-68
2020/12/13 14:32:02;;;;;;;46.47;22.10;;;4.80;99.90;;;;;;4955890;28;20276;-70
2020/12/13 14:34:29;;;;;;;60.85;25.95;;;4.70;99.90;;;;;;4954025;29;20513;-69
2020/12/13 14:36:56;;;;;;;53.42;23.77;;;4.70;99.90;;;;;;4954935;28;20209;-69
2020/12/13 14:39:22;;;;;;;67.00;24.50;;;4.70;99.90;;;;;;4956251;29;20276;-69
2020/12/13 14:41:53;;;;;;;66.20;27.10;;;4.80;99.90;;;;;;4954610;28;20236;-69
2020/12/13 14:44:20;;;;;;;63.53;25.58;;;4.80;99.90;;;;;;4955950;29;20319;-69
2020/12/13 14:46:46;;;;;;;57.67;24.92;;;4.80;99.90;;;;;;4951156;29;20209;-69
2020/12/13 14:49:13;;;;;;;56.85;23.48;;;4.80;99.90;;;;;;4956313;29;20212;-69
2020/12/13 14:51:40;;;;;;;40.83;15.13;;;4.80;99.90;;;;;;4955934;29;20236;-69
2020/12/13 14:54:06;;;;;;;71.88;29.42;;;4.80;99.90;;;;;;4954893;28;20209;-69
2020/12/13 14:56:32;;;;;;;63.85;25.50;;;4.80;99.90;;;;;;4942786;29;20205;-69
2020/12/13 14:58:58;;;;;;;57.53;25.60;;;4.80;99.90;;;;;;4956118;29;20205;-69
2020/12/13 15:01:24;;;;;;;68.10;26.33;;;4.80;99.90;;;;;;4955438;28;20229;-69
2020/12/13 15:03:50;;;;;;;62.33;26.48;;;4.80;99.90;;;;;;4954873;28;20217;-69
2020/12/13 15:06:27;;;;;;;64.28;26.85;;;4.80;99.90;;;;;;4955270;29;20205;-69
2020/12/13 15:08:55;;;;;;;60.92;26.45;;;4.80;99.90;;;;;;4955674;29;20232;-69
2020/12/13 15:11:22;;;;;;;77.43;27.85;;;4.80;99.90;;;;;;4955332;28;20288;-69
2020/12/13 15:13:54;;;;;;;72.55;26.60;;;4.80;99.90;;;;;;4954622;28;20215;-69
2020/12/13 15:16:42;;;;;;;68.35;29.63;;;4.80;99.90;;;;;;4951871;29;20209;-70
2020/12/13 15:19:10;;;;;;;69.50;26.52;;;4.80;99.90;;;;;;4954199;28;20213;-70
2020/12/13 15:21:39;;;;;;;70.97;27.55;;;4.80;99.90;;;;;;4955475;29;20253;-70
2020/12/13 15:24:06;;;;;;;73.78;28.05;;;4.80;99.90;;;;;;4954719;29;20665;-69
2020/12/13 15:26:32;;;;;;;62.78;26.77;;;4.80;99.90;;;;;;4955025;28;20208;-69
2020/12/13 15:28:58;;;;;;;79.88;30.13;;;4.80;99.90;;;;;;4954855;29;20205;-69
2020/12/13 15:31:24;;;;;;;81.97;30.83;;;4.80;99.90;;;;;;4954858;29;20225;-69
2020/12/13 15:33:51;;;;;;;64.53;26.05;;;4.90;99.90;;;;;;4952916;29;20213;-69
2020/12/13 15:36:18;;;;;;;77.75;36.00;;;4.80;99.90;;;;;;4951518;28;20216;-69
2020/12/13 15:38:44;;;;;;;67.70;28.05;;;4.80;99.90;;;;;;4954749;29;20213;-69
2020/12/13 15:41:11;;;;;;;85.50;34.55;;;4.80;99.90;;;;;;4951828;28;20729;-69
2020/12/13 15:43:37;;;;;;;94.88;29.30;;;4.80;99.90;;;;;;4954808;29;20630;-69
2020/12/13 15:46:04;;;;;;;79.43;27.25;;;4.80;99.90;;;;;;4954044;29;20334;-69
2020/12/13 15:48:30;;;;;;;74.43;29.08;;;4.90;99.90;;;;;;4955447;29;20232;-69
2020/12/13 15:50:56;;;;;;;69.45;27.67;;;4.90;99.90;;;;;;4954028;28;20232;-69
2020/12/13 15:53:22;;;;;;;78.18;29.95;;;4.80;99.90;;;;;;4952895;28;20661;-69
2020/12/13 15:55:49;;;;;;;71.97;28.02;;;4.80;99.90;;;;;;4953878;29;20657;-71
2020/12/13 15:58:16;;;;;;;86.85;27.60;;;4.80;99.90;;;;;;4955549;29;20266;-72
2020/12/13 16:00:43;;;;;;;87.60;29.33;;;4.80;99.90;;;;;;4941100;28;20650;-70
2020/12/13 16:03:09;;;;;;;76.13;27.77;;;4.80;99.90;;;;;;4947842;28;20206;-70
2020/12/13 16:05:37;;;;;;;75.97;29.85;;;4.80;99.90;;;;;;4948339;29;20284;-69
2020/12/13 16:08:05;;;;;;;71.88;29.45;;;4.80;99.90;;;;;;4949992;29;20292;-72
2020/12/13 16:10:31;;;;;;;84.90;30.90;;;4.80;99.90;;;;;;4950283;28;20241;-69
2020/12/13 16:13:01;;;;;;;75.85;27.60;;;4.80;99.90;;;;;;4950529;28;20259;-69
2020/12/13 16:15:30;;;;;;;86.35;28.48;;;4.80;99.90;;;;;;4949690;29;20228;-70
2020/12/13 16:17:56;;;;;;;91.88;30.83;;;4.80;99.90;;;;;;4951691;29;20642;-69
2020/12/13 16:20:22;;;;;;;107.03;34.35;;;4.80;99.90;;;;;;4950811;28;20201;-69
2020/12/13 16:22:54;;;;;;;73.03;28.50;;;4.80;99.90;;;;;;4950989;29;20576;-69
2020/12/13 16:25:20;;;;;;;61.60;24.33;;;4.80;99.90;;;;;;4950254;28;20210;-69
2020/12/13 16:27:49;;;;;;;70.93;27.50;;;4.80;99.90;;;;;;4951105;28;20220;-69
2020/12/13 16:30:17;;;;;;;66.40;26.27;;;4.80;99.90;;;;;;4948939;28;20213;-69
2020/12/13 16:32:44;;;;;;;77.18;26.52;;;4.70;99.90;;;;;;4950530;29;20212;-70
2020/12/13 16:35:11;;;;;;;127.82;54.30;;;4.70;99.90;;;;;;4949716;28;20300;-70
2020/12/13 16:37:37;;;;;;;95.68;30.63;;;4.70;99.90;;;;;;4951035;28;20213;-70
2020/12/13 16:40:04;;;;;;;73.35;29.58;;;4.80;99.90;;;;;;4950929;29;20244;-70
2020/12/13 16:42:34;;;;;;;76.32;27.95;;;4.80;99.90;;;;;;4948239;29;20236;-70
2020/12/13 16:45:00;;;;;;;70.07;27.35;;;4.80;99.90;;;;;;4946523;28;20232;-70
2020/12/13 16:47:29;;;;;;;80.82;28.88;;;4.80;99.90;;;;;;4953981;29;20209;-70
2020/12/13 16:50:14;;;;;;;71.10;25.15;;;4.80;99.90;;;;;;4952422;28;20217;-70
2020/12/13 16:55:28;;;;;;;59.17;26.52;;;4.80;99.90;;;;;;4952978;29;20204;-70
2020/12/13 16:57:55;;;;;;;67.70;26.65;;;4.80;99.90;;;;;;4952900;29;20209;-70
2020/12/13 17:00:22;;;;;;;69.93;26.33;;;4.80;99.90;;;;;;4951926;28;20578;-70
2020/12/13 17:02:48;;;;;;;83.03;26.67;;;4.80;99.90;;;;;;4951814;28;20205;-71
2020/12/13 17:05:16;;;;;;;114.05;31.88;;;4.80;99.90;;;;;;4952476;29;20288;-71
2020/12/13 17:07:42;;;;;;;73.15;27.27;;;4.80;99.90;;;;;;4952746;29;20945;-71
2020/12/13 17:10:09;;;;;;;65.65;26.27;;;4.80;99.90;;;;;;4951058;28;20240;-71
2020/12/13 17:12:39;;;;;;;71.78;27.25;;;4.80;99.90;;;;;;4950392;28;20284;-71
2020/12/13 17:15:06;;;;;;;70.00;27.17;;;4.80;99.90;;;;;;4948095;28;20618;-71
2020/12/13 17:17:32;;;;;;;79.10;27.15;;;4.80;99.90;;;;;;4951608;28;20285;-71
2020/12/13 17:20:00;;;;;;;63.75;26.35;;;4.80;99.90;;;;;;4952024;28;20220;-71
2020/12/13 17:22:27;;;;;;;61.47;25.80;;;4.80;99.90;;;;;;4950206;28;20326;-71
2020/12/13 17:24:53;;;;;;;75.70;29.70;;;4.80;99.90;;;;;;4952051;28;20263;-71
2020/12/13 17:27:20;;;;;;;68.90;24.83;;;4.80;99.90;;;;;;4950030;28;20645;-71
2020/12/13 17:29:46;;;;;;;66.88;25.63;;;4.80;99.90;;;;;;4951444;28;20224;-71
2020/12/13 17:32:13;;;;;;;55.75;23.73;;;4.80;99.90;;;;;;4950998;28;20323;-71
2020/12/13 17:34:39;;;;;;;79.18;29.40;;;4.80;99.90;;;;;;4953168;29;20264;-71
2020/12/13 17:37:09;;;;;;;62.83;26.38;;;4.80;99.90;;;;;;4951519;29;20209;-72
2020/12/13 17:39:36;;;;;;;63.85;27.33;;;4.80;99.90;;;;;;4944864;28;20224;-71
2020/12/13 17:42:02;;;;;;;57.15;26.15;;;4.80;99.90;;;;;;4948235;29;20230;-71
2020/12/13 17:44:31;;;;;;;71.18;25.60;;;4.80;99.90;;;;;;4949766;29;20209;-72
2020/12/13 17:46:58;;;;;;;48.92;22.63;;;4.80;99.90;;;;;;4949383;28;20304;-72
2020/12/13 17:49:24;;;;;;;67.72;28.02;;;4.80;99.90;;;;;;4945993;28;20209;-72
2020/12/13 17:51:58;;;;;;;71.00;26.85;;;4.80;99.90;;;;;;4945116;29;20265;-72